createdAt,value
2019-01-19T00:01:14.149Z,22.10
2019-01-19T00:04:24.540Z,22.10
2019-01-19T00:07:37.928Z,22.10
2019-01-19T00:10:36.287Z,22.10
2019-01-19T00:13:46.684Z,22.10
2019-01-19T00:16:44.949Z,22.10
2019-01-19T00:20:07.909Z,22.10
2019-01-19T00:23:12.970Z,22.10
2019-01-19T00:26:20.033Z,22.10
2019-01-19T00:29:39.779Z,22.10
2019-01-19T00:32:50.001Z,22.10
2019-01-19T00:35:49.591Z,22.10
2019-01-19T00:38:58.803Z,22.10
2019-01-19T00:42:08.900Z,22.10
2019-01-19T00:45:25.476Z,22.10
2019-01-19T00:48:42.427Z,22.10
2019-01-19T00:51:51.644Z,22.00
2019-01-19T00:55:05.256Z,22.10
2019-01-19T00:58:18.338Z,22.00
2019-01-19T01:01:27.257Z,22.00
2019-01-19T01:04:32.975Z,22.00
2019-01-19T01:07:49.940Z,22.00
2019-01-19T01:10:59.032Z,22.00
2019-01-19T01:14:16.363Z,22.00
2019-01-19T01:17:25.535Z,22.00
2019-01-19T01:20:42.520Z,22.00
2019-01-19T01:23:43.741Z,22.00
2019-01-19T01:27:00.340Z,22.00
2019-01-19T01:30:20.168Z,22.00
2019-01-19T01:33:29.317Z,22.00
2019-01-19T01:36:25.661Z,22.00
2019-01-19T01:39:21.666Z,22.00
2019-01-19T01:42:26.301Z,22.00
2019-01-19T01:45:21.260Z,22.00
2019-01-19T01:48:25.704Z,21.90
2019-01-19T01:51:42.544Z,22.00
2019-01-19T01:54:46.960Z,22.00
2019-01-19T01:57:51.947Z,22.00
2019-01-19T02:00:46.468Z,22.00
2019-01-19T02:03:52.286Z,22.00
2019-01-19T02:07:09.634Z,22.00
2019-01-19T02:10:18.913Z,22.00
2019-01-19T02:13:20.507Z,21.90
2019-01-19T02:16:29.351Z,22.00
2019-01-19T02:19:28.622Z,22.00
2019-01-19T02:22:30.121Z,22.00
2019-01-19T02:25:30.464Z,22.00
2019-01-19T02:28:32.665Z,22.00
2019-01-19T02:31:42.022Z,22.00
2019-01-19T02:35:07.883Z,22.00
2019-01-19T02:38:07.177Z,22.00
2019-01-19T02:41:17.766Z,22.00
2019-01-19T02:44:16.127Z,22.00
2019-01-19T02:47:18.696Z,22.00
2019-01-19T02:50:15.299Z,22.00
2019-01-19T02:53:34.872Z,22.00
2019-01-19T02:56:32.727Z,22.00
2019-01-19T02:59:34.326Z,22.00
2019-01-19T03:02:37.512Z,22.00
2019-01-19T03:05:56.077Z,22.00
2019-01-19T03:08:53.357Z,22.00
2019-01-19T03:12:02.473Z,22.00
2019-01-19T03:15:16.038Z,22.00
2019-01-19T03:18:26.469Z,21.90
2019-01-19T03:21:43.009Z,21.90
2019-01-19T03:25:12.191Z,22.00
2019-01-19T03:28:11.394Z,22.00
2019-01-19T03:31:24.234Z,21.90
2019-01-19T03:34:25.422Z,21.90
2019-01-19T03:37:38.740Z,21.90
2019-01-19T03:40:37.943Z,21.90
2019-01-19T03:43:48.006Z,21.90
2019-01-19T03:46:56.775Z,21.90
2019-01-19T03:50:16.672Z,21.90
2019-01-19T03:53:19.969Z,21.90
2019-01-19T03:56:45.206Z,21.90
2019-01-19T04:00:15.052Z,21.90
2019-01-19T04:03:37.504Z,21.90
2019-01-19T04:06:56.540Z,21.90
2019-01-19T04:10:06.720Z,21.90
2019-01-19T04:13:11.991Z,21.90
2019-01-19T04:16:31.279Z,21.90
2019-01-19T04:19:36.945Z,21.90
2019-01-19T04:22:40.468Z,21.90
2019-01-19T04:25:40.333Z,21.90
2019-01-19T04:28:36.693Z,21.90
2019-01-19T04:31:30.958Z,21.90
2019-01-19T04:34:26.940Z,21.90
2019-01-19T04:37:22.934Z,21.90
2019-01-19T04:40:18.576Z,21.90
2019-01-19T04:43:12.569Z,21.90
2019-01-19T04:46:06.693Z,21.90
2019-01-19T04:49:02.488Z,21.90
2019-01-19T04:51:57.735Z,21.90
2019-01-19T04:54:50.473Z,21.90
2019-01-19T04:57:42.646Z,21.90
2019-01-19T05:00:35.319Z,21.90
2019-01-19T05:03:27.785Z,21.90
2019-01-19T05:06:30.020Z,21.90
2019-01-19T05:09:19.825Z,21.90
2019-01-19T05:12:20.187Z,21.80
2019-01-19T05:15:23.744Z,21.80
2019-01-19T05:18:24.275Z,21.90
2019-01-19T05:21:31.917Z,21.90
2019-01-19T05:24:25.108Z,21.90
2019-01-19T05:30:50.607Z,21.90
2019-01-19T05:33:51.504Z,21.90
2019-01-19T05:36:48.157Z,21.90
2019-01-19T05:39:44.912Z,21.90
2019-01-19T05:42:39.245Z,21.90
2019-01-19T05:45:32.734Z,21.90
2019-01-19T05:48:28.772Z,21.90
2019-01-19T05:51:25.319Z,21.90
2019-01-19T05:54:20.229Z,21.90
2019-01-19T05:57:17.248Z,21.90
2019-01-19T06:00:16.525Z,21.90
2019-01-19T06:03:10.590Z,22.00
2019-01-19T06:06:04.835Z,21.90
2019-01-19T06:08:59.735Z,22.00
2019-01-19T06:11:52.137Z,22.00
2019-01-19T06:14:49.313Z,22.00
2019-01-19T06:17:42.740Z,22.00
2019-01-19T06:20:39.260Z,22.00
2019-01-19T06:23:32.809Z,22.00
2019-01-19T06:26:25.396Z,22.00
2019-01-19T06:29:17.600Z,21.90
2019-01-19T06:32:10.507Z,22.00
2019-01-19T06:35:07.403Z,22.00
2019-01-19T06:38:01.245Z,22.00
2019-01-19T06:40:57.787Z,22.00
2019-01-19T06:43:51.867Z,22.00
2019-01-19T06:46:46.259Z,22.00
2019-01-19T06:49:40.439Z,22.00
2019-01-19T06:52:34.117Z,22.10
2019-01-19T06:55:34.561Z,22.10
2019-01-19T06:58:28.082Z,22.10
2019-01-19T07:01:21.682Z,22.10
2019-01-19T07:04:15.360Z,22.10
2019-01-19T07:07:08.830Z,22.10
2019-01-19T07:10:01.904Z,22.10
2019-01-19T07:12:54.516Z,22.10
2019-01-19T07:15:46.828Z,22.10
2019-01-19T07:18:39.060Z,22.10
2019-01-19T07:21:31.656Z,22.10
2019-01-19T07:24:23.917Z,22.10
2019-01-19T07:27:15.928Z,22.10
2019-01-19T07:30:12.384Z,22.10
2019-01-19T07:33:04.148Z,22.10
2019-01-19T07:35:56.545Z,22.10
2019-01-19T07:38:48.721Z,22.10
2019-01-19T07:41:40.927Z,22.10
2019-01-19T07:44:33.828Z,22.10
2019-01-19T07:47:27.135Z,22.20
2019-01-19T07:50:21.233Z,22.20
2019-01-19T07:53:14.660Z,22.20
2019-01-19T07:56:08.433Z,22.20
2019-01-19T07:59:01.353Z,22.20
2019-01-19T08:01:57.058Z,22.20
2019-01-19T08:04:50.301Z,22.20
2019-01-19T08:07:42.870Z,22.20
2019-01-19T08:10:35.496Z,22.20
2019-01-19T08:13:27.588Z,22.20
2019-01-19T08:16:20.270Z,22.20
2019-01-19T08:19:20.419Z,22.20
2019-01-19T08:22:12.840Z,22.30
2019-01-19T08:25:04.851Z,22.30
2019-01-19T08:27:57.636Z,22.30
2019-01-19T08:30:50.333Z,22.20
2019-01-19T08:33:43.206Z,22.30
2019-01-19T08:36:36.909Z,22.30
2019-01-19T08:39:30.393Z,22.30
2019-01-19T08:42:23.729Z,22.30
2019-01-19T08:45:17.063Z,22.30
2019-01-19T08:48:10.324Z,22.30
2019-01-19T08:51:03.135Z,22.30
2019-01-19T08:53:56.417Z,22.30
2019-01-19T08:56:49.138Z,22.30
2019-01-19T08:59:41.022Z,22.30
2019-01-19T09:02:34.857Z,22.30
2019-01-19T09:05:27.396Z,22.30
2019-01-19T09:08:19.618Z,22.40
2019-01-19T09:11:11.743Z,22.30
2019-01-19T09:14:03.666Z,22.40
2019-01-19T09:16:55.654Z,22.40
2019-01-19T09:19:47.648Z,22.40
2019-01-19T09:22:40.442Z,22.40
2019-01-19T09:25:33.184Z,22.40
2019-01-19T09:28:25.343Z,22.40
2019-01-19T09:31:17.531Z,22.40
2019-01-19T09:34:10.578Z,22.40
2019-01-19T09:37:03.003Z,22.40
2019-01-19T09:39:54.820Z,22.40
2019-01-19T09:42:47.108Z,22.40
2019-01-19T09:45:39.133Z,22.50
2019-01-19T09:48:32.572Z,22.50
2019-01-19T09:51:24.495Z,22.40
2019-01-19T09:54:16.632Z,22.40
2019-01-19T09:57:09.792Z,22.40
2019-01-19T10:00:11.949Z,22.50
2019-01-19T10:03:07.375Z,22.50
2019-01-19T10:06:00.980Z,22.50
2019-01-19T10:08:55.254Z,22.50
2019-01-19T10:11:50.167Z,22.50
2019-01-19T10:14:43.786Z,22.60
2019-01-19T10:17:37.379Z,22.50
2019-01-19T10:20:31.531Z,22.50
2019-01-19T10:23:25.581Z,22.50
2019-01-19T10:26:18.684Z,22.50
2019-01-19T10:29:12.249Z,22.50
2019-01-19T10:32:05.268Z,22.60
2019-01-19T10:34:57.820Z,22.60
2019-01-19T10:37:56.086Z,22.60
2019-01-19T10:40:44.010Z,22.60
2019-01-19T10:43:36.543Z,22.60
2019-01-19T10:46:30.620Z,22.60
2019-01-19T10:49:23.402Z,22.60
2019-01-19T10:52:16.219Z,22.60
2019-01-19T10:55:08.548Z,22.60
2019-01-19T10:58:00.850Z,22.70
2019-01-19T11:00:53.396Z,22.70
2019-01-19T11:03:47.102Z,22.70
2019-01-19T11:06:41.886Z,22.70
2019-01-19T11:09:36.300Z,22.70
2019-01-19T11:12:31.251Z,22.70
2019-01-19T11:15:32.732Z,22.70
2019-01-19T11:18:30.893Z,22.70
2019-01-19T11:21:24.169Z,22.70
2019-01-19T11:24:16.935Z,22.70
2019-01-19T11:27:11.362Z,22.70
2019-01-19T11:30:05.732Z,22.70
2019-01-19T11:33:00.153Z,22.80
2019-01-19T11:35:54.775Z,22.70
2019-01-19T11:38:48.316Z,22.70
2019-01-19T11:41:41.460Z,22.80
2019-01-19T11:44:37.589Z,22.80
2019-01-19T11:47:30.868Z,22.80
2019-01-19T11:50:25.828Z,22.80
2019-01-19T11:53:21.397Z,22.80
2019-01-19T11:56:15.692Z,22.80
2019-01-19T11:59:09.378Z,22.80
2019-01-19T12:02:01.887Z,22.80
2019-01-19T12:04:54.346Z,22.80
2019-01-19T12:07:48.218Z,22.80
2019-01-19T12:10:43.010Z,22.80
2019-01-19T12:13:38.103Z,22.80
2019-01-19T12:16:32.092Z,22.80
2019-01-19T12:19:24.294Z,22.90
2019-01-19T12:22:16.594Z,22.90
2019-01-19T12:25:10.870Z,22.90
2019-01-19T12:28:03.835Z,22.90
2019-01-19T12:30:56.247Z,22.90
2019-01-19T12:33:48.550Z,22.90
2019-01-19T12:36:41.430Z,22.90
2019-01-19T12:39:36.479Z,22.90
2019-01-19T12:42:29.501Z,22.90
2019-01-19T12:45:23.946Z,22.90
2019-01-19T12:48:16.198Z,22.90
2019-01-19T12:51:09.594Z,22.90
2019-01-19T12:54:02.198Z,22.90
2019-01-19T12:56:54.409Z,23.00
2019-01-19T12:59:46.455Z,23.00
2019-01-19T13:02:38.836Z,23.00
2019-01-19T13:05:35.683Z,23.00
2019-01-19T13:08:34.152Z,23.00
2019-01-19T13:11:43.065Z,23.00
2019-01-19T13:14:36.331Z,23.00
2019-01-19T13:17:41.573Z,23.00
2019-01-19T13:21:04.350Z,23.00
2019-01-19T13:24:09.952Z,23.00
2019-01-19T13:27:18.395Z,23.00
2019-01-19T13:30:29.438Z,23.00
2019-01-19T13:33:44.258Z,23.10
2019-01-19T13:36:50.416Z,23.10
2019-01-19T13:40:10.124Z,23.10
